Time;durP1;ratioP1;P1;durP2;ratioP2;P2;SDS_P1;SDS_P2;PMS_P1;PMS_P2;Temp;Humidity;BMP_temperature;BMP_pressure;BME280_temperature;BME280_humidity;BME280_pressure;Samples;Min_cycle;Max_cycle;Signal;HPM_P1;HPM_P2
2023/12/28 00:00:14;;;;;;;;;;;;;;;;;;5113448;28;20441;-42
2023/12/28 00:02:41;;;;;;;;;;;;;;;;;;5113268;28;19923;-43
2023/12/28 00:05:07;;;;;;;;;;;;;;;;;;5113445;28;19923;-44
2023/12/28 00:07:33;;;;;;;;;;;;;;;;;;5116579;28;19977;-44
2023/12/28 00:09:59;;;;;;;;;;;;;;;;;;5117229;28;19924;-43
2023/12/28 00:12:25;;;;;;;;;;;;;;;;;;5117395;28;19953;-42
2023/12/28 00:14:52;;;;;;;;;;;;;;;;;;5116828;28;19938;-41
2023/12/28 00:17:18;;;;;;;;;;;;;;;;;;5117336;28;19989;-45
2023/12/28 00:19:44;;;;;;;;;;;;;;;;;;5116702;27;19928;-41
2023/12/28 00:22:10;;;;;;;;;;;;;;;;;;5116840;27;19924;-42
2023/12/28 00:24:36;;;;;;;;;;;;;;;;;;5115686;28;19927;-42
2023/12/28 00:27:03;;;;;;;;;;;;;;;;;;5116353;28;19962;-44
2023/12/28 00:29:29;;;;;;;;;;;;;;;;;;5116790;28;19924;-41
2023/12/28 00:31:55;;;;;;;;;;;;;;;;;;5116953;28;19977;-43
2023/12/28 00:34:21;;;;;;;;;;;;;;;;;;5116825;28;20434;-43
2023/12/28 00:36:47;;;;;;;;;;;;;;;;;;5116814;28;19924;-43
2023/12/28 00:39:15;;;;;;;;;;;;;;;;;;5116505;28;19923;-41
2023/12/28 00:41:41;;;;;;;;;;;;;;;;;;5116655;28;19930;-43
2023/12/28 00:44:09;;;;;;;;;;;;;;;;;;5116326;28;19924;-41
2023/12/28 00:46:35;;;;;;;;;;;;;;;;;;5116262;28;20347;-41
2023/12/28 00:49:01;;;;;;;;;;;;;;;;;;5116631;28;20355;-43
2023/12/28 00:51:27;;;;;;;;;;;;;;;;;;5116472;28;20404;-42
2023/12/28 00:53:54;;;;;;;;;;;;;;;;;;5116089;28;19923;-41
2023/12/28 00:56:21;;;;;;;;;;;;;;;;;;5116313;27;20279;-43
2023/12/28 00:58:47;;;;;;;;;;;;;;;;;;5116125;27;19972;-42
2023/12/28 01:01:13;;;;;;;;;;;;;;;;;;5116293;28;19969;-42
2023/12/28 01:03:39;;;;;;;;;;;;;;;;;;5115962;28;19928;-41
2023/12/28 01:06:06;;;;;;;;;;;;;;;;;;5116206;28;19923;-44
2023/12/28 01:08:33;;;;;;;;;;;;;;;;;;5116225;28;19923;-44
2023/12/28 01:11:00;;;;;;;;;;;;;;;;;;5115967;28;20026;-42
2023/12/28 01:13:26;;;;;;;;;;;;;;;;;;5116116;28;20280;-41
2023/12/28 01:15:52;;;;;;;;;;;;;;;;;;5115748;28;19928;-41
2023/12/28 01:18:18;;;;;;;;;;;;;;;;;;5115457;28;19928;-41
2023/12/28 01:20:45;;;;;;;;;;;;;;;;;;5116190;28;19924;-42
2023/12/28 01:23:11;;;;;;;;;;;;;;;;;;5116087;28;19928;-43
2023/12/28 01:25:37;;;;;;;;;;;;;;;;;;5115146;28;20321;-41
2023/12/28 01:28:04;;;;;;;;;;;;;;;;;;5115193;28;19968;-44
2023/12/28 01:30:30;;;;;;;;;;;;;;;;;;5115077;28;19924;-43
2023/12/28 01:32:56;;;;;;;;;;;;;;;;;;5115716;28;20317;-43
2023/12/28 01:35:23;;;;;;;;;;;;;;;;;;5115557;28;19953;-43
2023/12/28 01:37:49;;;;;;;;;;;;;;;;;;5115563;28;19928;-41
2023/12/28 01:40:15;;;;;;;;;;;;;;;;;;5115467;27;19976;-41
2023/12/28 01:42:41;;;;;;;;;;;;;;;;;;5115499;28;20359;-42
2023/12/28 01:45:08;;;;;;;;;;;;;;;;;;5114917;27;20458;-42
2023/12/28 01:47:34;;;;;;;;;;;;;;;;;;5115395;28;20417;-41
2023/12/28 01:50:00;;;;;;;;;;;;;;;;;;5115434;28;20371;-43
2023/12/28 01:52:27;;;;;;;;;;;;;;;;;;5115489;28;19986;-42
2023/12/28 01:54:53;;;;;;;;;;;;;;;;;;5114893;28;20310;-41
2023/12/28 01:57:19;;;;;;;;;;;;;;;;;;5115030;28;19923;-42
2023/12/28 01:59:46;;;;;;;;;;;;;;;;;;5115146;28;19932;-43
2023/12/28 02:02:12;;;;;;;;;;;;;;;;;;5115185;28;19976;-42
2023/12/28 02:04:38;;;;;;;;;;;;;;;;;;5115059;28;19988;-44
2023/12/28 02:07:04;;;;;;;;;;;;;;;;;;5114944;28;19928;-43
2023/12/28 02:09:30;;;;;;;;;;;;;;;;;;5114506;28;20363;-42
2023/12/28 02:11:57;;;;;;;;;;;;;;;;;;5115073;28;19934;-42
2023/12/28 02:14:23;;;;;;;;;;;;;;;;;;5114826;28;19993;-42
2023/12/28 02:16:49;;;;;;;;;;;;;;;;;;5114772;28;19928;-42
2023/12/28 02:19:15;;;;;;;;;;;;;;;;;;5114989;28;19932;-41
2023/12/28 02:21:41;;;;;;;;;;;;;;;;;;5114903;28;19924;-43
2023/12/28 02:24:07;;;;;;;;;;;;;;;;;;5114263;28;19924;-44
2023/12/28 02:26:34;;;;;;;;;;;;;;;;;;5114089;28;19931;-44
2023/12/28 02:29:00;;;;;;;;;;;;;;;;;;5114080;28;20435;-43
2023/12/28 02:31:26;;;;;;;;;;;;;;;;;;5113510;28;19924;-42
2023/12/28 02:33:53;;;;;;;;;;;;;;;;;;5114356;28;19927;-42
2023/12/28 02:36:19;;;;;;;;;;;;;;;;;;5114173;28;19927;-44
2023/12/28 02:38:45;;;;;;;;;;;;;;;;;;5114484;28;19969;-43
2023/12/28 02:41:11;;;;;;;;;;;;;;;;;;5114149;28;19924;-42
2023/12/28 02:43:37;;;;;;;;;;;;;;;;;;5114220;28;19924;-42
2023/12/28 02:46:03;;;;;;;;;;;;;;;;;;5114179;28;19927;-42
2023/12/28 02:48:30;;;;;;;;;;;;;;;;;;5114240;28;19928;-44
2023/12/28 02:50:56;;;;;;;;;;;;;;;;;;5114323;28;19923;-42
2023/12/28 02:53:22;;;;;;;;;;;;;;;;;;5114318;28;20348;-43
2023/12/28 02:55:48;;;;;;;;;;;;;;;;;;5113900;28;19989;-41
2023/12/28 02:58:14;;;;;;;;;;;;;;;;;;5113108;28;19946;-43
2023/12/28 03:00:41;;;;;;;;;;;;;;;;;;5113644;28;20359;-41
2023/12/28 03:03:07;;;;;;;;;;;;;;;;;;5113387;28;19932;-44
2023/12/28 03:05:33;;;;;;;;;;;;;;;;;;5113381;28;19923;-42
2023/12/28 03:07:59;;;;;;;;;;;;;;;;;;5113351;28;19927;-41
2023/12/28 03:10:26;;;;;;;;;;;;;;;;;;5113200;28;19924;-42
2023/12/28 03:12:52;;;;;;;;;;;;;;;;;;5113647;28;20309;-42
2023/12/28 03:15:18;;;;;;;;;;;;;;;;;;5113102;28;19923;-41
2023/12/28 03:17:44;;;;;;;;;;;;;;;;;;5113374;28;20212;-41
2023/12/28 03:20:11;;;;;;;;;;;;;;;;;;5113556;28;20404;-43
2023/12/28 03:22:37;;;;;;;;;;;;;;;;;;5112921;28;19972;-45
2023/12/28 03:25:03;;;;;;;;;;;;;;;;;;5113191;28;19927;-41
2023/12/28 03:27:29;;;;;;;;;;;;;;;;;;5113373;28;19932;-42
2023/12/28 03:29:55;;;;;;;;;;;;;;;;;;5113198;28;19931;-41
2023/12/28 03:32:22;;;;;;;;;;;;;;;;;;5113296;28;19923;-44
2023/12/28 03:34:48;;;;;;;;;;;;;;;;;;5113482;28;20383;-41
2023/12/28 03:37:14;;;;;;;;;;;;;;;;;;5113679;28;19930;-44
2023/12/28 03:39:40;;;;;;;;;;;;;;;;;;5112788;28;19928;-47
2023/12/28 03:42:06;;;;;;;;;;;;;;;;;;5115946;28;19927;-41
2023/12/28 03:44:32;;;;;;;;;;;;;;;;;;5117153;28;19996;-42
2023/12/28 03:47:00;;;;;;;;;;;;;;;;;;5116821;28;19927;-42
2023/12/28 03:49:26;;;;;;;;;;;;;;;;;;5117132;28;19923;-42
2023/12/28 03:51:52;;;;;;;;;;;;;;;;;;5117147;28;19927;-43
2023/12/28 03:54:18;;;;;;;;;;;;;;;;;;5116946;28;19927;-43
2023/12/28 03:56:44;;;;;;;;;;;;;;;;;;5116799;28;19924;-43
2023/12/28 03:59:11;;;;;;;;;;;;;;;;;;5116798;28;19967;-42
2023/12/28 04:01:37;;;;;;;;;;;;;;;;;;5117055;28;19923;-42
2023/12/28 04:04:03;;;;;;;;;;;;;;;;;;5116925;28;19924;-43
2023/12/28 04:06:29;;;;;;;;;;;;;;;;;;5117353;28;19923;-42
2023/12/28 04:08:55;;;;;;;;;;;;;;;;;;5117429;28;19927;-42
2023/12/28 04:11:22;;;;;;;;;;;;;;;;;;5117210;28;19927;-43
2023/12/28 04:13:48;;;;;;;;;;;;;;;;;;5117227;28;19928;-41
2023/12/28 04:16:14;;;;;;;;;;;;;;;;;;5116947;28;20270;-42
2023/12/28 04:18:40;;;;;;;;;;;;;;;;;;5117364;28;20278;-42
2023/12/28 04:21:06;;;;;;;;;;;;;;;;;;5117138;28;19947;-42
2023/12/28 04:23:32;;;;;;;;;;;;;;;;;;5116409;28;19927;-42
2023/12/28 04:25:59;;;;;;;;;;;;;;;;;;5116388;27;19928;-40
2023/12/28 04:28:25;;;;;;;;;;;;;;;;;;5116325;28;20313;-41
2023/12/28 04:30:51;;;;;;;;;;;;;;;;;;5115995;28;20334;-42
2023/12/28 04:33:19;;;;;;;;;;;;;;;;;;5116429;28;19982;-45
2023/12/28 04:35:45;;;;;;;;;;;;;;;;;;5115717;28;19924;-42
2023/12/28 04:38:11;;;;;;;;;;;;;;;;;;5116796;28;19924;-42
2023/12/28 04:40:37;;;;;;;;;;;;;;;;;;5116223;28;19936;-44
2023/12/28 04:43:04;;;;;;;;;;;;;;;;;;5116878;28;19969;-42
2023/12/28 04:45:30;;;;;;;;;;;;;;;;;;5116311;28;20356;-41
2023/12/28 04:47:56;;;;;;;;;;;;;;;;;;5116330;27;20006;-43
2023/12/28 04:50:22;;;;;;;;;;;;;;;;;;5116385;28;19924;-47
2023/12/28 04:52:49;;;;;;;;;;;;;;;;;;5115433;27;19927;-41
2023/12/28 04:55:15;;;;;;;;;;;;;;;;;;5116460;27;19955;-43
2023/12/28 04:57:41;;;;;;;;;;;;;;;;;;5116309;28;20284;-43
2023/12/28 05:00:08;;;;;;;;;;;;;;;;;;5115928;28;19924;-43
2023/12/28 05:02:34;;;;;;;;;;;;;;;;;;5115934;28;20012;-41
2023/12/28 05:05:00;;;;;;;;;;;;;;;;;;5116306;28;19977;-44
2023/12/28 05:07:26;;;;;;;;;;;;;;;;;;5116357;28;19953;-44
2023/12/28 05:09:52;;;;;;;;;;;;;;;;;;5116029;28;19962;-41
2023/12/28 05:12:18;;;;;;;;;;;;;;;;;;5115741;28;19975;-42
2023/12/28 05:14:45;;;;;;;;;;;;;;;;;;5115938;27;19924;-40
2023/12/28 05:17:11;;;;;;;;;;;;;;;;;;5116204;28;19992;-41
2023/12/28 05:19:37;;;;;;;;;;;;;;;;;;5116037;28;19963;-41
2023/12/28 05:22:06;;;;;;;;;;;;;;;;;;5116052;28;20364;-42
2023/12/28 05:24:32;;;;;;;;;;;;;;;;;;5115770;28;20060;-44
2023/12/28 05:26:58;;;;;;;;;;;;;;;;;;5115818;28;19984;-42
2023/12/28 05:29:24;;;;;;;;;;;;;;;;;;5115857;28;19927;-43
2023/12/28 05:31:51;;;;;;;;;;;;;;;;;;5115319;27;19928;-47
2023/12/28 05:34:17;;;;;;;;;;;;;;;;;;5115802;28;19924;-42
2023/12/28 05:36:45;;;;;;;;;;;;;;;;;;5115139;28;20366;-44
2023/12/28 05:39:13;;;;;;;;;;;;;;;;;;5115390;28;20359;-44
2023/12/28 05:41:40;;;;;;;;;;;;;;;;;;5115710;28;19969;-42
2023/12/28 05:44:06;;;;;;;;;;;;;;;;;;5115773;28;19957;-42
2023/12/28 05:46:32;;;;;;;;;;;;;;;;;;5114887;28;19923;-42
2023/12/28 05:48:58;;;;;;;;;;;;;;;;;;5114558;28;19924;-44
2023/12/28 05:51:24;;;;;;;;;;;;;;;;;;5115088;28;19930;-44
2023/12/28 05:53:51;;;;;;;;;;;;;;;;;;5114887;28;20347;-43
2023/12/28 05:56:17;;;;;;;;;;;;;;;;;;5114753;28;19927;-43
2023/12/28 05:58:45;;;;;;;;;;;;;;;;;;5114250;28;22225;-43
2023/12/28 06:01:11;;;;;;;;;;;;;;;;;;5114609;27;19963;-43
2023/12/28 06:03:37;;;;;;;;;;;;;;;;;;5113334;28;19940;-42
2023/12/28 06:06:03;;;;;;;;;;;;;;;;;;5113416;28;19984;-41
2023/12/28 06:08:30;;;;;;;;;;;;;;;;;;5113406;28;19924;-42
2023/12/28 06:10:56;;;;;;;;;;;;;;;;;;5114825;28;19923;-41
2023/12/28 06:13:22;;;;;;;;;;;;;;;;;;5114125;28;19924;-43
2023/12/28 06:15:48;;;;;;;;;;;;;;;;;;5114411;28;19967;-44
2023/12/28 06:18:14;;;;;;;;;;;;;;;;;;5114470;28;19947;-41
2023/12/28 06:20:41;;;;;;;;;;;;;;;;;;5114694;28;19931;-42
2023/12/28 06:23:08;;;;;;;;;;;;;;;;;;5114844;28;19927;-43
2023/12/28 06:25:34;;;;;;;;;;;;;;;;;;5114379;28;19931;-46
2023/12/28 06:28:00;;;;;;;;;;;;;;;;;;5114648;28;19928;-44
2023/12/28 06:30:27;;;;;;;;;;;;;;;;;;5114150;28;19924;-43
2023/12/28 06:32:53;;;;;;;;;;;;;;;;;;5113788;28;19927;-41
2023/12/28 06:35:19;;;;;;;;;;;;;;;;;;5114094;28;19953;-43
2023/12/28 06:37:45;;;;;;;;;;;;;;;;;;5113245;28;19953;-42
2023/12/28 06:40:11;;;;;;;;;;;;;;;;;;5113878;28;19931;-43
2023/12/28 06:42:38;;;;;;;;;;;;;;;;;;5114572;28;19963;-43
2023/12/28 06:45:04;;;;;;;;;;;;;;;;;;5113929;28;19931;-43
2023/12/28 06:47:30;;;;;;;;;;;;;;;;;;5097567;28;19977;-41
2023/12/28 06:49:56;;;;;;;;;;;;;;;;;;5093516;28;19924;-43
2023/12/28 06:52:23;;;;;;;;;;;;;;;;;;5093902;28;20360;-43
2023/12/28 06:54:49;;;;;;;;;;;;;;;;;;5104902;28;20329;-43
2023/12/28 06:57:15;;;;;;;;;;;;;;;;;;5096438;28;19924;-44
2023/12/28 06:59:41;;;;;;;;;;;;;;;;;;5107077;28;19935;-42
2023/12/28 07:02:08;;;;;;;;;;;;;;;;;;5114091;28;19924;-43
2023/12/28 07:04:34;;;;;;;;;;;;;;;;;;5113522;28;19978;-43
2023/12/28 07:07:00;;;;;;;;;;;;;;;;;;5113739;28;19924;-42
2023/12/28 07:09:26;;;;;;;;;;;;;;;;;;5113683;28;19924;-42
2023/12/28 07:11:52;;;;;;;;;;;;;;;;;;5113887;28;19928;-42
2023/12/28 07:14:18;;;;;;;;;;;;;;;;;;5114032;28;19965;-45
2023/12/28 07:16:45;;;;;;;;;;;;;;;;;;5112620;28;19928;-44
2023/12/28 07:19:11;;;;;;;;;;;;;;;;;;5113571;28;19924;-43
2023/12/28 07:21:37;;;;;;;;;;;;;;;;;;5113718;28;19927;-45
2023/12/28 07:24:03;;;;;;;;;;;;;;;;;;5113770;28;19946;-44
2023/12/28 07:26:30;;;;;;;;;;;;;;;;;;5113463;28;19976;-44
2023/12/28 07:28:56;;;;;;;;;;;;;;;;;;5113815;28;19927;-42
2023/12/28 07:31:22;;;;;;;;;;;;;;;;;;5113556;28;19985;-42
2023/12/28 07:33:48;;;;;;;;;;;;;;;;;;5113278;28;20059;-42
2023/12/28 07:36:14;;;;;;;;;;;;;;;;;;5113583;28;19992;-44
2023/12/28 07:38:41;;;;;;;;;;;;;;;;;;5112988;28;19977;-43
2023/12/28 07:41:07;;;;;;;;;;;;;;;;;;5113175;28;19974;-42
2023/12/28 07:43:33;;;;;;;;;;;;;;;;;;5113698;28;19927;-43
2023/12/28 07:45:59;;;;;;;;;;;;;;;;;;5111175;28;19957;-43
2023/12/28 07:48:25;;;;;;;;;;;;;;;;;;5113527;28;19924;-43
2023/12/28 07:50:52;;;;;;;;;;;;;;;;;;5113184;28;19924;-42
2023/12/28 07:53:18;;;;;;;;;;;;;;;;;;5113461;28;20008;-45
2023/12/28 07:55:44;;;;;;;;;;;;;;;;;;5113121;28;19924;-43
2023/12/28 07:58:10;;;;;;;;;;;;;;;;;;5113567;28;19951;-41
2023/12/28 08:00:36;;;;;;;;;;;;;;;;;;5113467;28;19924;-43
2023/12/28 08:03:02;;;;;;;;;;;;;;;;;;5109475;28;19924;-42
2023/12/28 08:05:29;;;;;;;;;;;;;;;;;;5112133;28;19931;-43
2023/12/28 08:07:55;;;;;;;;;;;;;;;;;;5112834;28;19923;-41
2023/12/28 08:10:22;;;;;;;;;;;;;;;;;;5113039;28;19924;-42
2023/12/28 08:12:48;;;;;;;;;;;;;;;;;;5113593;28;19923;-45
2023/12/28 08:15:14;;;;;;;;;;;;;;;;;;5112943;28;19928;-42
2023/12/28 08:17:40;;;;;;;;;;;;;;;;;;5113022;28;19932;-42
2023/12/28 08:20:06;;;;;;;;;;;;;;;;;;5113118;28;19924;-43
2023/12/28 08:22:33;;;;;;;;;;;;;;;;;;5113132;28;19957;-43
2023/12/28 08:24:59;;;;;;;;;;;;;;;;;;5113164;28;19923;-42
2023/12/28 08:27:25;;;;;;;;;;;;;;;;;;5114569;28;19924;-42
2023/12/28 08:29:52;;;;;;;;;;;;;;;;;;5116963;28;20355;-42
2023/12/28 08:32:18;;;;;;;;;;;;;;;;;;5117014;28;19949;-42
2023/12/28 08:34:45;;;;;;;;;;;;;;;;;;5116984;28;20348;-44
2023/12/28 08:37:11;;;;;;;;;;;;;;;;;;5116427;28;20027;-43
2023/12/28 08:39:37;;;;;;;;;;;;;;;;;;5116627;28;20379;-45
2023/12/28 08:42:03;;;;;;;;;;;;;;;;;;5116587;28;19928;-42
2023/12/28 08:44:29;;;;;;;;;;;;;;;;;;5116795;28;19973;-43
2023/12/28 08:46:55;;;;;;;;;;;;;;;;;;5116291;28;19959;-43
2023/12/28 08:49:22;;;;;;;;;;;;;;;;;;5116634;28;19928;-43
2023/12/28 08:51:48;;;;;;;;;;;;;;;;;;5115981;27;19934;-42
2023/12/28 08:54:14;;;;;;;;;;;;;;;;;;5116444;28;20376;-41
2023/12/28 08:56:41;;;;;;;;;;;;;;;;;;5116507;28;20023;-44
2023/12/28 08:59:07;;;;;;;;;;;;;;;;;;5116527;28;19923;-44
2023/12/28 09:01:33;;;;;;;;;;;;;;;;;;5116218;28;19989;-43
2023/12/28 09:03:59;;;;;;;;;;;;;;;;;;5116408;28;19924;-44
2023/12/28 09:06:26;;;;;;;;;;;;;;;;;;5116405;28;19972;-43
2023/12/28 09:08:52;;;;;;;;;;;;;;;;;;5114408;28;19928;-43
2023/12/28 09:11:18;;;;;;;;;;;;;;;;;;5113335;28;20560;-41
2023/12/28 09:13:45;;;;;;;;;;;;;;;;;;5116070;28;20264;-44
2023/12/28 09:16:11;;;;;;;;;;;;;;;;;;5115640;27;19969;-43
2023/12/28 09:18:37;;;;;;;;;;;;;;;;;;5115991;28;19924;-43
2023/12/28 09:21:03;;;;;;;;;;;;;;;;;;5115856;28;19928;-44
2023/12/28 09:23:30;;;;;;;;;;;;;;;;;;5115751;28;19923;-42
2023/12/28 09:25:57;;;;;;;;;;;;;;;;;;5115299;28;19975;-41
2023/12/28 09:28:23;;;;;;;;;;;;;;;;;;5115121;28;20329;-43
2023/12/28 09:30:49;;;;;;;;;;;;;;;;;;5115205;28;19927;-44
2023/12/28 09:33:16;;;;;;;;;;;;;;;;;;5115329;28;19930;-43
2023/12/28 09:35:42;;;;;;;;;;;;;;;;;;5115242;28;20283;-44
2023/12/28 09:38:10;;;;;;;;;;;;;;;;;;5114651;28;19974;-42
2023/12/28 09:40:37;;;;;;;;;;;;;;;;;;5114705;28;19973;-44
2023/12/28 09:43:04;;;;;;;;;;;;;;;;;;5114688;28;19924;-43
2023/12/28 09:45:30;;;;;;;;;;;;;;;;;;5114833;28;19924;-44
2023/12/28 09:47:56;;;;;;;;;;;;;;;;;;5114855;28;19924;-41
2023/12/28 09:50:26;;;;;;;;;;;;;;;;;;5115435;27;19924;-41
2023/12/28 09:52:53;;;;;;;;;;;;;;;;;;5115584;28;19923;-44
2023/12/28 09:55:19;;;;;;;;;;;;;;;;;;5115504;28;19924;-41
2023/12/28 09:57:45;;;;;;;;;;;;;;;;;;5115298;28;19928;-41
2023/12/28 10:00:11;;;;;;;;;;;;;;;;;;5115194;28;19966;-43
2023/12/28 10:02:38;;;;;;;;;;;;;;;;;;5115261;28;20353;-43
2023/12/28 10:05:04;;;;;;;;;;;;;;;;;;5115152;28;20417;-40
2023/12/28 10:07:30;;;;;;;;;;;;;;;;;;5114610;28;19928;-41
2023/12/28 10:09:56;;;;;;;;;;;;;;;;;;5114362;27;19969;-42
2023/12/28 10:12:23;;;;;;;;;;;;;;;;;;5114239;28;19928;-40
2023/12/28 10:14:49;;;;;;;;;;;;;;;;;;5114266;28;19932;-42
2023/12/28 10:17:15;;;;;;;;;;;;;;;;;;5114856;28;19928;-43
2023/12/28 10:19:45;;;;;;;;;;;;;;;;;;5114562;28;20363;-42
2023/12/28 10:22:13;;;;;;;;;;;;;;;;;;5114779;28;20402;-43
2023/12/28 10:24:39;;;;;;;;;;;;;;;;;;5114809;28;19931;-42
2023/12/28 10:27:05;;;;;;;;;;;;;;;;;;5114638;28;19930;-41
2023/12/28 10:29:32;;;;;;;;;;;;;;;;;;5114715;28;19924;-43
2023/12/28 10:31:58;;;;;;;;;;;;;;;;;;5114077;28;19923;-40
2023/12/28 10:34:25;;;;;;;;;;;;;;;;;;5114541;28;19924;-42
2023/12/28 10:36:51;;;;;;;;;;;;;;;;;;5114668;28;19982;-41
2023/12/28 10:39:18;;;;;;;;;;;;;;;;;;5113617;28;19931;-41
2023/12/28 10:41:44;;;;;;;;;;;;;;;;;;5093984;28;20026;-44
2023/12/28 10:44:10;;;;;;;;;;;;;;;;;;5097335;28;20405;-43
2023/12/28 10:46:36;;;;;;;;;;;;;;;;;;5113607;28;19924;-42
2023/12/28 10:49:03;;;;;;;;;;;;;;;;;;5114195;27;19976;-43
2023/12/28 10:51:30;;;;;;;;;;;;;;;;;;5113362;28;19931;-42
2023/12/28 10:53:56;;;;;;;;;;;;;;;;;;5114231;28;19924;-42
2023/12/28 10:56:22;;;;;;;;;;;;;;;;;;5114288;27;19973;-43
2023/12/28 10:58:48;;;;;;;;;;;;;;;;;;5114059;28;19969;-42
2023/12/28 11:01:14;;;;;;;;;;;;;;;;;;5114051;28;20336;-43
2023/12/28 11:03:41;;;;;;;;;;;;;;;;;;5114111;28;19923;-42
2023/12/28 11:06:07;;;;;;;;;;;;;;;;;;5114297;28;19930;-44
2023/12/28 11:08:33;;;;;;;;;;;;;;;;;;5113800;28;19924;-42
2023/12/28 11:11:04;;;;;;;;;;;;;;;;;;5113463;28;19924;-41
2023/12/28 11:13:30;;;;;;;;;;;;;;;;;;5113711;28;19977;-42
2023/12/28 11:15:56;;;;;;;;;;;;;;;;;;5113577;28;20001;-41
2023/12/28 11:18:23;;;;;;;;;;;;;;;;;;5113825;28;19969;-45
2023/12/28 11:20:50;;;;;;;;;;;;;;;;;;5113747;28;20355;-41
2023/12/28 11:23:16;;;;;;;;;;;;;;;;;;5113952;28;19932;-41
2023/12/28 11:25:43;;;;;;;;;;;;;;;;;;5113532;28;20299;-41
2023/12/28 11:28:09;;;;;;;;;;;;;;;;;;5113724;28;20363;-44
2023/12/28 11:30:36;;;;;;;;;;;;;;;;;;5113950;28;19932;-43
2023/12/28 11:33:03;;;;;;;;;;;;;;;;;;5112898;28;19924;-41
2023/12/28 11:35:30;;;;;;;;;;;;;;;;;;5112771;28;19966;-41
2023/12/28 11:37:56;;;;;;;;;;;;;;;;;;5112952;28;19955;-42
2023/12/28 11:40:23;;;;;;;;;;;;;;;;;;5112522;28;19924;-41
2023/12/28 11:42:50;;;;;;;;;;;;;;;;;;5112867;28;20308;-41
2023/12/28 11:45:16;;;;;;;;;;;;;;;;;;5113278;28;19924;-43
2023/12/28 11:47:42;;;;;;;;;;;;;;;;;;5112505;28;19973;-42
2023/12/28 11:50:08;;;;;;;;;;;;;;;;;;5112946;28;20010;-42
2023/12/28 11:52:34;;;;;;;;;;;;;;;;;;5113571;28;19965;-42
2023/12/28 11:55:01;;;;;;;;;;;;;;;;;;5113446;28;19927;-43
2023/12/28 11:57:27;;;;;;;;;;;;;;;;;;5113477;28;19924;-41
2023/12/28 11:59:54;;;;;;;;;;;;;;;;;;5113517;28;19927;-42
2023/12/28 12:02:20;;;;;;;;;;;;;;;;;;5114806;28;19924;-41
2023/12/28 12:04:46;;;;;;;;;;;;;;;;;;5117630;28;19975;-41
2023/12/28 12:07:12;;;;;;;;;;;;;;;;;;5117201;28;20398;-43
2023/12/28 12:09:39;;;;;;;;;;;;;;;;;;5116730;28;19930;-42
2023/12/28 12:12:05;;;;;;;;;;;;;;;;;;5117047;28;20413;-41
2023/12/28 12:14:31;;;;;;;;;;;;;;;;;;5117020;28;19928;-41
2023/12/28 12:16:58;;;;;;;;;;;;;;;;;;5117005;28;19973;-43
2023/12/28 12:19:25;;;;;;;;;;;;;;;;;;5117300;28;19923;-41
2023/12/28 12:21:51;;;;;;;;;;;;;;;;;;5117351;28;19928;-42
2023/12/28 12:24:18;;;;;;;;;;;;;;;;;;5117296;28;19927;-42
2023/12/28 12:26:44;;;;;;;;;;;;;;;;;;5117068;28;19932;-43
2023/12/28 12:29:10;;;;;;;;;;;;;;;;;;5117172;28;19973;-43
2023/12/28 12:31:38;;;;;;;;;;;;;;;;;;5117156;28;19973;-43
2023/12/28 12:34:04;;;;;;;;;;;;;;;;;;5116950;28;20321;-42
2023/12/28 12:36:30;;;;;;;;;;;;;;;;;;5116189;28;19932;-41
2023/12/28 12:38:56;;;;;;;;;;;;;;;;;;5116794;28;19982;-44
2023/12/28 12:41:22;;;;;;;;;;;;;;;;;;5116675;28;19924;-42
2023/12/28 12:43:49;;;;;;;;;;;;;;;;;;5116164;28;19927;-42
2023/12/28 12:46:15;;;;;;;;;;;;;;;;;;5116305;28;20313;-41
2023/12/28 12:48:41;;;;;;;;;;;;;;;;;;5116119;28;19932;-41
2023/12/28 12:51:08;;;;;;;;;;;;;;;;;;5116651;28;20353;-42
2023/12/28 12:53:34;;;;;;;;;;;;;;;;;;5116521;28;19947;-43
2023/12/28 12:56:00;;;;;;;;;;;;;;;;;;5116676;28;19928;-41
2023/12/28 12:58:27;;;;;;;;;;;;;;;;;;5116642;28;19932;-42
2023/12/28 13:00:53;;;;;;;;;;;;;;;;;;5116715;28;19932;-41
2023/12/28 13:03:20;;;;;;;;;;;;;;;;;;5116467;28;19928;-42
2023/12/28 13:05:46;;;;;;;;;;;;;;;;;;5116197;28;20394;-42
2023/12/28 13:08:12;;;;;;;;;;;;;;;;;;5116331;28;20356;-42
2023/12/28 13:10:38;;;;;;;;;;;;;;;;;;5115810;28;19927;-44
2023/12/28 13:13:04;;;;;;;;;;;;;;;;;;5115820;28;19923;-41
2023/12/28 13:15:31;;;;;;;;;;;;;;;;;;5114923;28;20006;-40
2023/12/28 13:17:57;;;;;;;;;;;;;;;;;;5116109;28;19928;-42
2023/12/28 13:20:23;;;;;;;;;;;;;;;;;;5116156;28;19928;-44
2023/12/28 13:22:49;;;;;;;;;;;;;;;;;;5116150;28;19927;-43
2023/12/28 13:25:15;;;;;;;;;;;;;;;;;;5116003;28;20000;-41
2023/12/28 13:27:42;;;;;;;;;;;;;;;;;;5116004;28;19928;-41
2023/12/28 13:30:08;;;;;;;;;;;;;;;;;;5116053;28;19930;-42
2023/12/28 13:32:34;;;;;;;;;;;;;;;;;;5115947;28;20382;-41
2023/12/28 13:35:00;;;;;;;;;;;;;;;;;;5115257;28;19927;-40
2023/12/28 13:37:28;;;;;;;;;;;;;;;;;;5114513;28;20055;-41
2023/12/28 13:39:54;;;;;;;;;;;;;;;;;;5114969;27;19927;-42
2023/12/28 13:42:20;;;;;;;;;;;;;;;;;;5115220;28;19932;-43
2023/12/28 13:44:47;;;;;;;;;;;;;;;;;;5114372;28;19935;-42
2023/12/28 13:47:13;;;;;;;;;;;;;;;;;;5115100;28;20302;-45
2023/12/28 13:49:39;;;;;;;;;;;;;;;;;;5114618;28;19931;-42
2023/12/28 13:52:05;;;;;;;;;;;;;;;;;;5114761;28;19924;-44
2023/12/28 13:54:31;;;;;;;;;;;;;;;;;;5114873;28;19936;-44
2023/12/28 13:56:59;;;;;;;;;;;;;;;;;;5114966;28;19924;-43
2023/12/28 13:59:25;;;;;;;;;;;;;;;;;;5114866;28;19923;-41
2023/12/28 14:01:51;;;;;;;;;;;;;;;;;;5114447;28;19927;-41
2023/12/28 14:04:17;;;;;;;;;;;;;;;;;;5115260;28;19970;-40
2023/12/28 14:06:44;;;;;;;;;;;;;;;;;;5115178;28;19928;-42
2023/12/28 14:09:12;;;;;;;;;;;;;;;;;;5114809;28;19924;-43
2023/12/28 14:11:38;;;;;;;;;;;;;;;;;;5114951;28;19924;-43
2023/12/28 14:14:04;;;;;;;;;;;;;;;;;;5114861;28;19931;-41
2023/12/28 14:16:30;;;;;;;;;;;;;;;;;;5114954;28;19969;-41
2023/12/28 14:18:57;;;;;;;;;;;;;;;;;;5114595;28;19942;-41
2023/12/28 14:21:23;;;;;;;;;;;;;;;;;;5114975;28;19962;-44
2023/12/28 14:23:50;;;;;;;;;;;;;;;;;;5114694;28;19928;-41
2023/12/28 14:26:16;;;;;;;;;;;;;;;;;;5114794;28;19924;-42
2023/12/28 14:28:42;;;;;;;;;;;;;;;;;;5115029;28;19927;-40
2023/12/28 14:31:08;;;;;;;;;;;;;;;;;;5114774;28;19927;-40
2023/12/28 14:33:34;;;;;;;;;;;;;;;;;;5114225;28;19947;-42
2023/12/28 14:36:01;;;;;;;;;;;;;;;;;;5114551;28;20002;-41
2023/12/28 14:38:27;;;;;;;;;;;;;;;;;;5114292;28;20048;-42
2023/12/28 14:40:53;;;;;;;;;;;;;;;;;;5113882;28;19924;-42
2023/12/28 14:43:19;;;;;;;;;;;;;;;;;;5114542;28;19923;-40
2023/12/28 14:45:47;;;;;;;;;;;;;;;;;;5113487;28;20019;-41
2023/12/28 14:48:13;;;;;;;;;;;;;;;;;;5114368;28;19977;-41
2023/12/28 14:50:39;;;;;;;;;;;;;;;;;;5113471;28;19924;-41
2023/12/28 14:53:05;;;;;;;;;;;;;;;;;;5113912;28;19993;-43
2023/12/28 14:55:34;;;;;;;;;;;;;;;;;;5114016;28;19923;-42
2023/12/28 14:58:02;;;;;;;;;;;;;;;;;;5113937;28;20328;-42
2023/12/28 15:00:28;;;;;;;;;;;;;;;;;;5114112;28;19927;-42
2023/12/28 15:02:54;;;;;;;;;;;;;;;;;;5114119;28;19928;-41
2023/12/28 15:05:21;;;;;;;;;;;;;;;;;;5113680;28;19963;-41
2023/12/28 15:07:48;;;;;;;;;;;;;;;;;;5113671;28;19927;-40
2023/12/28 15:10:14;;;;;;;;;;;;;;;;;;5113542;28;19928;-40
2023/12/28 15:12:40;;;;;;;;;;;;;;;;;;5113955;28;20007;-41
2023/12/28 15:15:06;;;;;;;;;;;;;;;;;;5113559;28;19923;-41
2023/12/28 15:17:32;;;;;;;;;;;;;;;;;;5114040;28;19969;-42
2023/12/28 15:19:59;;;;;;;;;;;;;;;;;;5113798;28;20252;-40
2023/12/28 15:22:25;;;;;;;;;;;;;;;;;;5113856;28;19924;-41
2023/12/28 15:24:52;;;;;;;;;;;;;;;;;;5113992;28;19923;-40
2023/12/28 15:27:18;;;;;;;;;;;;;;;;;;5113840;28;20383;-40
2023/12/28 15:29:44;;;;;;;;;;;;;;;;;;5113375;28;20329;-40
2023/12/28 15:32:10;;;;;;;;;;;;;;;;;;5113577;28;19923;-40
2023/12/28 15:34:36;;;;;;;;;;;;;;;;;;5113572;28;19977;-41
2023/12/28 15:37:03;;;;;;;;;;;;;;;;;;5113226;28;19931;-40
2023/12/28 15:39:29;;;;;;;;;;;;;;;;;;5113267;28;19924;-42
2023/12/28 15:41:55;;;;;;;;;;;;;;;;;;5112991;28;19924;-41
2023/12/28 15:44:21;;;;;;;;;;;;;;;;;;5113721;28;19924;-40
2023/12/28 15:46:47;;;;;;;;;;;;;;;;;;5113413;28;20127;-40
2023/12/28 15:49:13;;;;;;;;;;;;;;;;;;5113445;28;19927;-42
2023/12/28 15:51:40;;;;;;;;;;;;;;;;;;5113372;28;20372;-40
2023/12/28 15:54:06;;;;;;;;;;;;;;;;;;5113614;28;19928;-41
2023/12/28 15:56:32;;;;;;;;;;;;;;;;;;5113280;28;19953;-41
2023/12/28 15:58:58;;;;;;;;;;;;;;;;;;5113199;28;19928;-40
2023/12/28 16:01:24;;;;;;;;;;;;;;;;;;5113187;28;19928;-40
2023/12/28 16:03:51;;;;;;;;;;;;;;;;;;5113183;28;19928;-41
2023/12/28 16:06:17;;;;;;;;;;;;;;;;;;5112984;28;19923;-40
2023/12/28 16:08:43;;;;;;;;;;;;;;;;;;5113340;28;19931;-40
2023/12/28 16:11:09;;;;;;;;;;;;;;;;;;5112396;28;19923;-41
2023/12/28 16:13:36;;;;;;;;;;;;;;;;;;5113127;28;20432;-40
2023/12/28 16:16:02;;;;;;;;;;;;;;;;;;5112845;28;19963;-41
2023/12/28 16:18:30;;;;;;;;;;;;;;;;;;5113315;28;19924;-41
2023/12/28 16:20:56;;;;;;;;;;;;;;;;;;5113395;28;19928;-40
2023/12/28 16:23:22;;;;;;;;;;;;;;;;;;5113450;28;19930;-42
2023/12/28 16:25:48;;;;;;;;;;;;;;;;;;5112584;28;19928;-42
2023/12/28 16:28:14;;;;;;;;;;;;;;;;;;5112778;28;20424;-41
2023/12/28 16:30:41;;;;;;;;;;;;;;;;;;5112627;28;19970;-40
2023/12/28 16:33:07;;;;;;;;;;;;;;;;;;5112641;28;19927;-41
2023/12/28 16:35:33;;;;;;;;;;;;;;;;;;5112390;28;19923;-42
2023/12/28 16:37:59;;;;;;;;;;;;;;;;;;5112959;28;19956;-41